Time;durP1;ratioP1;P1;durP2;ratioP2;P2;SDS_P1;SDS_P2;PMS_P1;PMS_P2;Temp;Humidity;BMP_temperature;BMP_pressure;BME280_temperature;BME280_humidity;BME280_pressure;Samples;Min_cycle;Max_cycle;Signal;HPM_P1;HPM_P2
2023/09/20 00:02:19;;;;;;;5.85;1.02;;;;;;;;;;4988493;28;20223;-50
2023/09/20 00:04:47;;;;;;;1.67;1.10;;;;;;;;;;5006666;28;20185;-50
2023/09/20 00:07:13;;;;;;;1.40;1.00;;;;;;;;;;5002768;28;20178;-50
2023/09/20 00:09:40;;;;;;;1.23;0.77;;;;;;;;;;4992370;28;20224;-50
2023/09/20 00:12:06;;;;;;;2.35;1.00;;;;;;;;;;5008471;28;20472;-50
2023/09/20 00:14:32;;;;;;;1.67;1.30;;;;;;;;;;5000971;28;20813;-50
2023/09/20 00:17:00;;;;;;;2.50;1.08;;;;;;;;;;4997006;28;20200;-50
2023/09/20 00:19:26;;;;;;;3.03;1.00;;;;;;;;;;4994764;28;20224;-50
2023/09/20 00:21:51;;;;;;;1.30;0.95;;;;;;;;;;5006530;28;20189;-50
2023/09/20 00:24:17;;;;;;;2.45;1.00;;;;;;;;;;4989430;28;20202;-49
2023/09/20 00:26:43;;;;;;;2.80;0.90;;;;;;;;;;5007946;28;20199;-50
2023/09/20 00:29:09;;;;;;;1.17;1.00;;;;;;;;;;5009045;28;20291;-50
2023/09/20 00:31:37;;;;;;;4.03;1.10;;;;;;;;;;4998815;28;20256;-50
2023/09/20 00:34:03;;;;;;;2.38;0.90;;;;;;;;;;4993140;28;20425;-50
2023/09/20 00:36:30;;;;;;;1.13;1.00;;;;;;;;;;5005122;28;20173;-50
2023/09/20 00:38:57;;;;;;;1.75;1.25;;;;;;;;;;4996865;28;20172;-50
2023/09/20 00:41:23;;;;;;;1.90;1.00;;;;;;;;;;4998944;28;20257;-50
2023/09/20 00:43:52;;;;;;;3.30;1.15;;;;;;;;;;5007198;28;20299;-50
2023/09/20 00:46:19;;;;;;;1.00;0.90;;;;;;;;;;4998645;28;20193;-50
2023/09/20 00:48:45;;;;;;;1.08;0.90;;;;;;;;;;5002342;28;20210;-50
2023/09/20 00:51:11;;;;;;;2.97;1.10;;;;;;;;;;5005662;28;20212;-50
2023/09/20 00:53:38;;;;;;;2.40;1.13;;;;;;;;;;5011964;28;20471;-50
2023/09/20 00:56:04;;;;;;;2.95;1.00;;;;;;;;;;5007403;28;20173;-50
2023/09/20 00:58:30;;;;;;;2.20;0.90;;;;;;;;;;5000952;28;20180;-50
2023/09/20 01:00:57;;;;;;;4.30;1.13;;;;;;;;;;4997959;28;20185;-50
2023/09/20 01:03:24;;;;;;;1.35;1.10;;;;;;;;;;4989011;28;20186;-50
2023/09/20 01:05:50;;;;;;;1.52;0.98;;;;;;;;;;5000525;28;20217;-50
2023/09/20 01:08:20;;;;;;;1.63;0.95;;;;;;;;;;5002971;28;20295;-51
2023/09/20 01:10:46;;;;;;;1.35;1.08;;;;;;;;;;4997604;28;20204;-49
2023/09/20 01:13:12;;;;;;;1.55;1.02;;;;;;;;;;5003746;28;20173;-50
2023/09/20 01:15:38;;;;;;;3.22;1.00;;;;;;;;;;4995909;28;20253;-49
2023/09/20 01:18:05;;;;;;;5.55;1.70;;;;;;;;;;5006643;28;20176;-50
2023/09/20 01:20:33;;;;;;;2.25;1.00;;;;;;;;;;4988818;28;20174;-49
2023/09/20 01:22:59;;;;;;;1.65;0.77;;;;;;;;;;5002457;28;20231;-50
2023/09/20 01:25:26;;;;;;;1.13;0.90;;;;;;;;;;5001270;28;20716;-50
2023/09/20 01:27:56;;;;;;;1.20;0.82;;;;;;;;;;4985735;28;20809;-50
2023/09/20 01:30:26;;;;;;;1.25;0.88;;;;;;;;;;4991088;28;20448;-50
2023/09/20 01:32:55;;;;;;;1.65;0.90;;;;;;;;;;5001287;28;20188;-50
2023/09/20 01:35:21;;;;;;;1.02;0.93;;;;;;;;;;5000059;28;20176;-50
2023/09/20 01:37:49;;;;;;;1.15;0.98;;;;;;;;;;5005475;28;20183;-50
2023/09/20 01:40:15;;;;;;;2.08;1.15;;;;;;;;;;5003435;28;20260;-50
2023/09/20 01:42:42;;;;;;;2.58;1.33;;;;;;;;;;4995179;28;20186;-50
2023/09/20 01:45:14;;;;;;;3.20;0.95;;;;;;;;;;4997186;28;20272;-50
2023/09/20 01:47:40;;;;;;;1.83;1.35;;;;;;;;;;4994284;28;20196;-50
2023/09/20 01:50:07;;;;;;;1.30;0.80;;;;;;;;;;5006516;28;20288;-50
2023/09/20 01:52:33;;;;;;;1.50;1.05;;;;;;;;;;5000180;28;20165;-50
2023/09/20 01:55:01;;;;;;;1.48;0.88;;;;;;;;;;4994957;28;20178;-50
2023/09/20 01:57:26;;;;;;;1.27;0.80;;;;;;;;;;4986948;28;20173;-50
2023/09/20 01:59:52;;;;;;;3.58;1.13;;;;;;;;;;4998563;28;20199;-50
2023/09/20 02:02:18;;;;;;;2.13;0.85;;;;;;;;;;5001744;28;20231;-50
2023/09/20 02:04:44;;;;;;;1.55;0.90;;;;;;;;;;4999706;28;20250;-50
2023/09/20 02:07:11;;;;;;;1.25;1.00;;;;;;;;;;5005554;28;20179;-50
2023/09/20 02:09:37;;;;;;;1.25;1.00;;;;;;;;;;4996119;28;20593;-50
2023/09/20 02:12:03;;;;;;;1.63;1.02;;;;;;;;;;4990254;28;20181;-50
2023/09/20 02:14:29;;;;;;;1.75;0.95;;;;;;;;;;4996563;28;20181;-50
2023/09/20 02:16:55;;;;;;;0.93;0.77;;;;;;;;;;4998276;28;20176;-50
2023/09/20 02:19:21;;;;;;;1.73;0.82;;;;;;;;;;5000501;28;20203;-50
2023/09/20 02:21:47;;;;;;;1.98;0.95;;;;;;;;;;5002086;28;20227;-50
2023/09/20 02:24:14;;;;;;;1.25;1.00;;;;;;;;;;4996189;28;20216;-50
2023/09/20 02:26:40;;;;;;;3.75;0.98;;;;;;;;;;5005292;28;20200;-50
2023/09/20 02:29:07;;;;;;;1.30;0.90;;;;;;;;;;5004151;28;20315;-50
2023/09/20 02:31:33;;;;;;;1.95;0.90;;;;;;;;;;4999133;28;20169;-50
2023/09/20 02:34:01;;;;;;;1.83;0.93;;;;;;;;;;5005749;28;20177;-50
2023/09/20 02:36:27;;;;;;;1.55;1.00;;;;;;;;;;5007961;28;20167;-50
2023/09/20 02:38:53;;;;;;;2.33;0.82;;;;;;;;;;5000053;28;20531;-50
2023/09/20 02:41:19;;;;;;;1.17;0.93;;;;;;;;;;4996380;28;20205;-50
2023/09/20 02:43:45;;;;;;;1.10;0.90;;;;;;;;;;5008593;28;20208;-50
2023/09/20 02:46:11;;;;;;;1.85;1.13;;;;;;;;;;4992078;28;20239;-50
2023/09/20 02:48:37;;;;;;;3.00;0.90;;;;;;;;;;5000539;28;20805;-50
2023/09/20 02:51:03;;;;;;;1.67;1.10;;;;;;;;;;5002107;28;20177;-50
2023/09/20 02:53:29;;;;;;;1.00;0.90;;;;;;;;;;5007812;28;20202;-50
2023/09/20 02:55:55;;;;;;;1.90;1.02;;;;;;;;;;4999347;28;20268;-50
2023/09/20 02:58:21;;;;;;;2.40;1.10;;;;;;;;;;4993482;28;20188;-50
2023/09/20 03:00:50;;;;;;;2.05;0.90;;;;;;;;;;4997880;28;20194;-50
2023/09/20 03:03:17;;;;;;;1.58;1.00;;;;;;;;;;4992306;28;20170;-50
2023/09/20 03:05:44;;;;;;;5.18;1.05;;;;;;;;;;4989541;28;20181;-50
2023/09/20 03:08:13;;;;;;;1.65;0.75;;;;;;;;;;5011875;28;20644;-50
2023/09/20 03:10:43;;;;;;;1.77;0.82;;;;;;;;;;4995111;28;20360;-50
2023/09/20 03:13:16;;;;;;;2.05;1.10;;;;;;;;;;4998286;28;20201;-50
2023/09/20 03:15:43;;;;;;;1.15;0.90;;;;;;;;;;5009606;28;20219;-50
2023/09/20 03:18:11;;;;;;;2.17;0.90;;;;;;;;;;4998109;28;20256;-50
2023/09/20 03:20:38;;;;;;;3.08;1.00;;;;;;;;;;5000017;28;20845;-50
2023/09/20 03:23:04;;;;;;;1.23;0.90;;;;;;;;;;5002911;28;20192;-50
2023/09/20 03:25:36;;;;;;;1.42;0.80;;;;;;;;;;5003811;28;20771;-50
2023/09/20 03:28:03;;;;;;;1.08;0.77;;;;;;;;;;4982682;28;20230;-49
2023/09/20 03:30:31;;;;;;;2.40;1.05;;;;;;;;;;5004657;28;20180;-50
2023/09/20 03:32:57;;;;;;;1.15;0.93;;;;;;;;;;4994488;28;20204;-50
2023/09/20 03:35:24;;;;;;;1.10;0.80;;;;;;;;;;4999031;28;20192;-49
2023/09/20 03:37:49;;;;;;;2.08;0.90;;;;;;;;;;5001341;28;20656;-50
2023/09/20 03:40:17;;;;;;;15.85;2.55;;;;;;;;;;4995622;28;20264;-50
2023/09/20 03:42:48;;;;;;;16.55;3.63;;;;;;;;;;5002929;28;20209;-50
2023/09/20 03:45:14;;;;;;;26.00;3.50;;;;;;;;;;4998112;28;20679;-50
2023/09/20 03:47:40;;;;;;;11.07;2.45;;;;;;;;;;4992504;28;20201;-50
2023/09/20 03:50:10;;;;;;;14.90;3.67;;;;;;;;;;5008866;28;20205;-50
2023/09/20 03:52:42;;;;;;;11.25;3.08;;;;;;;;;;5008629;28;20898;-51
2023/09/20 03:55:08;;;;;;;15.35;3.10;;;;;;;;;;5010642;28;20181;-50
2023/09/20 03:57:35;;;;;;;10.52;2.90;;;;;;;;;;4998418;28;20173;-50
2023/09/20 04:00:06;;;;;;;12.35;3.08;;;;;;;;;;5003328;28;20184;-49
2023/09/20 04:02:32;;;;;;;14.38;2.97;;;;;;;;;;5007401;28;20192;-50
2023/09/20 04:05:10;;;;;;;6.93;2.38;;;;;;;;;;5000186;28;20212;-50
2023/09/20 04:07:36;;;;;;;12.02;2.85;;;;;;;;;;4997722;28;20214;-50
2023/09/20 04:10:02;;;;;;;12.13;3.22;;;;;;;;;;4999915;28;20208;-50
2023/09/20 04:12:28;;;;;;;9.50;2.30;;;;;;;;;;5003985;28;20188;-50
2023/09/20 04:14:54;;;;;;;13.18;2.35;;;;;;;;;;5007524;28;20192;-50
2023/09/20 04:17:25;;;;;;;8.15;2.42;;;;;;;;;;4996856;28;20574;-50
2023/09/20 04:19:51;;;;;;;10.02;2.50;;;;;;;;;;4989460;28;20189;-50
2023/09/20 04:22:17;;;;;;;9.23;2.08;;;;;;;;;;4998869;28;20191;-50
2023/09/20 04:24:43;;;;;;;7.68;2.10;;;;;;;;;;5013499;28;20196;-50
2023/09/20 04:27:09;;;;;;;7.10;1.90;;;;;;;;;;5000607;28;20560;-50
2023/09/20 04:29:35;;;;;;;11.00;2.15;;;;;;;;;;4994171;28;20205;-50
2023/09/20 04:32:01;;;;;;;6.32;1.98;;;;;;;;;;4988889;28;20173;-50
2023/09/20 04:34:28;;;;;;;9.35;2.20;;;;;;;;;;5000795;28;20209;-50
2023/09/20 04:36:54;;;;;;;4.00;1.58;;;;;;;;;;5005026;28;20169;-50
2023/09/20 04:39:20;;;;;;;9.57;1.80;;;;;;;;;;4993651;28;20782;-50
2023/09/20 04:41:46;;;;;;;4.53;1.35;;;;;;;;;;5002092;28;20217;-50
2023/09/20 04:44:13;;;;;;;4.32;1.50;;;;;;;;;;5003568;28;20205;-44
2023/09/20 04:46:40;;;;;;;5.50;1.63;;;;;;;;;;5003224;28;20182;-46
2023/09/20 04:49:06;;;;;;;4.00;1.50;;;;;;;;;;4993162;28;20200;-48
2023/09/20 04:51:33;;;;;;;4.88;1.27;;;;;;;;;;5010998;28;20634;-49
2023/09/20 04:53:59;;;;;;;2.67;1.20;;;;;;;;;;5002261;28;20217;-48
2023/09/20 04:56:28;;;;;;;4.03;1.20;;;;;;;;;;4992421;28;20186;-51
2023/09/20 04:58:56;;;;;;;3.15;1.40;;;;;;;;;;4994054;28;20221;-51
2023/09/20 05:01:23;;;;;;;2.33;1.20;;;;;;;;;;5001228;28;20259;-51
2023/09/20 05:03:50;;;;;;;3.22;1.25;;;;;;;;;;4996498;28;20181;-51
2023/09/20 05:06:16;;;;;;;2.65;1.30;;;;;;;;;;4996794;28;20218;-51
2023/09/20 05:08:43;;;;;;;6.43;1.35;;;;;;;;;;5006953;28;20213;-51
2023/09/20 05:11:13;;;;;;;3.83;0.90;;;;;;;;;;5002355;28;20172;-51
2023/09/20 05:13:40;;;;;;;6.03;1.38;;;;;;;;;;4997031;28;20184;-51
2023/09/20 05:16:06;;;;;;;1.95;1.30;;;;;;;;;;4991325;28;20255;-51
2023/09/20 05:18:32;;;;;;;3.78;1.33;;;;;;;;;;5007376;28;20287;-52
2023/09/20 05:20:58;;;;;;;3.28;1.25;;;;;;;;;;5004737;28;20180;-51
2023/09/20 05:23:25;;;;;;;2.30;1.20;;;;;;;;;;4993090;28;20581;-51
2023/09/20 05:25:52;;;;;;;1.52;0.90;;;;;;;;;;4994744;28;20324;-51
2023/09/20 05:28:18;;;;;;;3.30;1.13;;;;;;;;;;4997167;28;20197;-51
2023/09/20 05:30:44;;;;;;;3.42;1.13;;;;;;;;;;4988186;28;20250;-51
2023/09/20 05:33:12;;;;;;;1.90;1.25;;;;;;;;;;5007384;28;20465;-51
2023/09/20 05:35:41;;;;;;;1.73;1.17;;;;;;;;;;5007597;28;20180;-52
2023/09/20 05:38:07;;;;;;;2.63;1.20;;;;;;;;;;5001305;28;20187;-51
2023/09/20 05:40:34;;;;;;;3.03;1.33;;;;;;;;;;4998620;28;20180;-51
2023/09/20 05:43:03;;;;;;;3.10;1.00;;;;;;;;;;5005381;28;20188;-51
2023/09/20 05:45:29;;;;;;;5.82;1.13;;;;;;;;;;5008667;28;20179;-51
2023/09/20 05:47:55;;;;;;;2.05;0.88;;;;;;;;;;5005297;28;20185;-51
2023/09/20 05:50:27;;;;;;;3.20;1.17;;;;;;;;;;4999831;28;20280;-51
2023/09/20 05:52:53;;;;;;;3.28;1.40;;;;;;;;;;5003275;28;20247;-51
2023/09/20 05:55:19;;;;;;;1.88;0.90;;;;;;;;;;4993221;28;20560;-51
2023/09/20 05:57:45;;;;;;;2.00;1.27;;;;;;;;;;4998543;28;20200;-51
2023/09/20 06:00:16;;;;;;;1.90;1.30;;;;;;;;;;4991806;28;20201;-51
2023/09/20 06:02:42;;;;;;;2.78;0.98;;;;;;;;;;4991569;28;20272;-50
2023/09/20 06:05:10;;;;;;;3.45;1.10;;;;;;;;;;5004775;28;20582;-48
2023/09/20 06:07:36;;;;;;;2.70;1.00;;;;;;;;;;5003352;28;20429;-48
2023/09/20 06:10:04;;;;;;;2.85;1.20;;;;;;;;;;4993347;28;20236;-44
2023/09/20 06:12:31;;;;;;;1.55;1.10;;;;;;;;;;4996015;28;20181;-49
2023/09/20 06:14:57;;;;;;;2.97;1.00;;;;;;;;;;4993323;28;20583;-46
2023/09/20 06:17:23;;;;;;;2.20;1.00;;;;;;;;;;5000062;28;20185;-47
2023/09/20 06:19:49;;;;;;;0.90;0.90;;;;;;;;;;4993832;28;20189;-47
2023/09/20 06:22:16;;;;;;;1.25;1.00;;;;;;;;;;4995789;28;20237;-50
2023/09/20 06:24:46;;;;;;;1.40;1.20;;;;;;;;;;4997802;28;20197;-50
2023/09/20 06:27:12;;;;;;;1.42;1.00;;;;;;;;;;5004297;28;20184;-49
2023/09/20 06:29:37;;;;;;;1.15;0.80;;;;;;;;;;4992597;28;20209;-47
2023/09/20 06:32:04;;;;;;;1.35;0.98;;;;;;;;;;4991346;28;20205;-46
2023/09/20 06:34:30;;;;;;;1.35;0.95;;;;;;;;;;5006316;28;20190;-47
2023/09/20 06:36:56;;;;;;;2.28;1.00;;;;;;;;;;5004134;28;20174;-49
2023/09/20 06:39:25;;;;;;;1.10;0.98;;;;;;;;;;5004962;28;20304;-50
2023/09/20 06:41:51;;;;;;;0.90;0.82;;;;;;;;;;4994418;28;20269;-48
2023/09/20 06:44:17;;;;;;;2.03;1.08;;;;;;;;;;4995319;28;20311;-49
2023/09/20 06:46:43;;;;;;;2.70;1.20;;;;;;;;;;4998622;28;20274;-49
2023/09/20 06:49:09;;;;;;;3.70;1.15;;;;;;;;;;5004553;28;20904;-48
2023/09/20 06:51:35;;;;;;;1.20;1.02;;;;;;;;;;5001696;28;20211;-55
2023/09/20 06:54:02;;;;;;;1.67;0.90;;;;;;;;;;5006109;28;20219;-50
2023/09/20 06:56:28;;;;;;;2.17;1.10;;;;;;;;;;5001015;28;20189;-50
2023/09/20 06:58:55;;;;;;;4.47;1.20;;;;;;;;;;5002356;28;20196;-53
2023/09/20 07:01:22;;;;;;;2.03;1.50;;;;;;;;;;4996901;28;20259;-51
2023/09/20 07:03:48;;;;;;;2.53;1.23;;;;;;;;;;5003854;28;20172;-52
2023/09/20 07:06:14;;;;;;;4.18;1.60;;;;;;;;;;4987913;28;20185;-52
2023/09/20 07:08:42;;;;;;;3.40;1.65;;;;;;;;;;5000827;28;20269;-48
2023/09/20 07:11:10;;;;;;;2.05;1.45;;;;;;;;;;5001877;28;20184;-49
2023/09/20 07:13:36;;;;;;;2.85;1.08;;;;;;;;;;5009408;28;20262;-48
2023/09/20 07:16:05;;;;;;;2.20;1.13;;;;;;;;;;5003799;28;20510;-49
2023/09/20 07:18:31;;;;;;;2.10;1.15;;;;;;;;;;4992112;28;20596;-49
2023/09/20 07:20:57;;;;;;;1.08;0.98;;;;;;;;;;5009961;28;20251;-48
2023/09/20 07:23:23;;;;;;;1.63;1.00;;;;;;;;;;5008107;28;20220;-48
2023/09/20 07:25:50;;;;;;;1.10;0.90;;;;;;;;;;5007060;28;20217;-48
2023/09/20 07:28:19;;;;;;;2.13;1.35;;;;;;;;;;5015771;28;20176;-49
2023/09/20 07:30:45;;;;;;;1.08;0.98;;;;;;;;;;5004212;28;20487;-48
2023/09/20 07:33:12;;;;;;;1.65;1.20;;;;;;;;;;5000767;28;20565;-48
2023/09/20 07:35:48;;;;;;;1.70;1.08;;;;;;;;;;5004010;28;20557;-48
2023/09/20 07:38:25;;;;;;;1.63;1.35;;;;;;;;;;4999674;28;20185;-48
2023/09/20 07:40:53;;;;;;;3.47;1.00;;;;;;;;;;5011308;28;20187;-48
2023/09/20 07:43:19;;;;;;;0.80;0.80;;;;;;;;;;5008530;28;20176;-48
2023/09/20 07:45:45;;;;;;;1.33;1.00;;;;;;;;;;5008139;28;20196;-48
2023/09/20 07:48:12;;;;;;;3.80;1.30;;;;;;;;;;4993726;28;20244;-48
2023/09/20 07:50:43;;;;;;;1.98;0.90;;;;;;;;;;4999614;28;20563;-48
2023/09/20 07:53:10;;;;;;;1.23;1.02;;;;;;;;;;5003499;28;20176;-48
2023/09/20 07:55:45;;;;;;;2.30;0.90;;;;;;;;;;4997702;28;20178;-48
2023/09/20 07:58:15;;;;;;;1.30;1.08;;;;;;;;;;5001299;28;20190;-49
2023/09/20 08:00:41;;;;;;;2.45;0.95;;;;;;;;;;4998504;28;20181;-49
2023/09/20 08:03:08;;;;;;;1.20;1.02;;;;;;;;;;5006857;28;20213;-49
2023/09/20 08:05:34;;;;;;;2.00;1.13;;;;;;;;;;5008579;28;20173;-49
2023/09/20 08:08:00;;;;;;;2.47;1.25;;;;;;;;;;4991105;28;20581;-49
2023/09/20 08:10:26;;;;;;;1.30;1.10;;;;;;;;;;4989010;28;20211;-49
2023/09/20 08:12:53;;;;;;;1.02;0.95;;;;;;;;;;5006539;28;20176;-49
2023/09/20 08:15:20;;;;;;;2.28;1.27;;;;;;;;;;5005156;28;20185;-49
2023/09/20 08:20:35;;;;;;;1.83;1.10;;;;;;;;;;4988824;28;20192;-48
2023/09/20 09:01:37;;;;;;;0.93;0.80;;;;;;;;;;4995973;28;20198;-48
2023/09/20 09:04:04;;;;;;;3.13;1.50;;;;;;;;;;5005216;28;20208;-48
2023/09/20 09:06:30;;;;;;;2.75;1.10;;;;;;;;;;5003443;28;20185;-48
2023/09/20 09:08:56;;;;;;;2.72;1.10;;;;;;;;;;5002789;28;20236;-48
2023/09/20 09:11:24;;;;;;;1.65;1.10;;;;;;;;;;5002193;28;20223;-48
2023/09/20 09:13:50;;;;;;;1.73;1.05;;;;;;;;;;4993606;28;20201;-51
2023/09/20 09:16:19;;;;;;;2.63;1.05;;;;;;;;;;4989833;28;20204;-47
2023/09/20 09:18:45;;;;;;;2.13;1.13;;;;;;;;;;5006902;28;20227;-48
2023/09/20 09:21:17;;;;;;;1.88;1.33;;;;;;;;;;5000386;28;20188;-47
2023/09/20 09:23:45;;;;;;;2.50;1.25;;;;;;;;;;4995986;28;20824;-47
2023/09/20 09:26:12;;;;;;;4.28;1.05;;;;;;;;;;5006160;28;20298;-48
2023/09/20 09:28:40;;;;;;;2.55;1.02;;;;;;;;;;4991463;28;20232;-49
2023/09/20 09:31:08;;;;;;;4.22;1.20;;;;;;;;;;5005882;28;20192;-49
2023/09/20 09:33:34;;;;;;;2.10;1.00;;;;;;;;;;5008065;28;20548;-49
2023/09/20 09:36:00;;;;;;;8.38;1.30;;;;;;;;;;4994032;28;20284;-49
2023/09/20 09:38:26;;;;;;;2.00;1.23;;;;;;;;;;5002478;28;20177;-49
2023/09/20 09:40:53;;;;;;;5.25;1.13;;;;;;;;;;5003566;28;20268;-49
2023/09/20 09:43:19;;;;;;;1.75;1.30;;;;;;;;;;4987814;28;20177;-47
2023/09/20 09:45:49;;;;;;;11.88;2.40;;;;;;;;;;5000381;28;20299;-48
2023/09/20 09:48:16;;;;;;;3.35;1.50;;;;;;;;;;5002492;28;20176;-48
2023/09/20 09:50:45;;;;;;;5.95;1.50;;;;;;;;;;4986303;28;20177;-48
2023/09/20 09:53:11;;;;;;;1.40;1.08;;;;;;;;;;5004505;28;20608;-48
2023/09/20 09:55:40;;;;;;;1.83;1.02;;;;;;;;;;5003263;28;20209;-49
2023/09/20 09:58:09;;;;;;;5.25;1.40;;;;;;;;;;4997491;28;20185;-49
2023/09/20 10:00:39;;;;;;;8.30;1.98;;;;;;;;;;4995124;28;20551;-48
2023/09/20 10:03:23;;;;;;;4.20;1.50;;;;;;;;;;5000711;28;20243;-48
2023/09/20 10:05:49;;;;;;;2.97;1.67;;;;;;;;;;4997103;28;20177;-48
2023/09/20 10:08:17;;;;;;;1.65;1.23;;;;;;;;;;5002581;28;20500;-50
2023/09/20 10:10:42;;;;;;;1.55;1.00;;;;;;;;;;5002473;28;20223;-46
2023/09/20 10:13:12;;;;;;;0.90;0.90;;;;;;;;;;5004877;28;20235;-47
2023/09/20 10:15:38;;;;;;;1.27;1.17;;;;;;;;;;5004446;28;20177;-49
2023/09/20 10:18:04;;;;;;;2.83;1.13;;;;;;;;;;5005419;28;20246;-49
2023/09/20 10:20:51;;;;;;;1.55;1.20;;;;;;;;;;4999039;28;20184;-47
2023/09/20 10:23:17;;;;;;;1.40;1.13;;;;;;;;;;4988677;28;20226;-49
2023/09/20 10:25:48;;;;;;;0.90;0.90;;;;;;;;;;5001310;28;20213;-50
2023/09/20 10:28:17;;;;;;;3.63;1.00;;;;;;;;;;4994699;28;20185;-49
2023/09/20 10:31:04;;;;;;;1.33;1.02;;;;;;;;;;4998817;28;20192;-48
2023/09/20 10:33:45;;;;;;;2.40;1.20;;;;;;;;;;4998814;28;20193;-48
2023/09/20 10:36:13;;;;;;;1.33;1.00;;;;;;;;;;4983724;28;20197;-48
2023/09/20 10:38:40;;;;;;;2.42;1.23;;;;;;;;;;4986128;28;20193;-49
2023/09/20 10:41:10;;;;;;;2.10;1.25;;;;;;;;;;4983643;28;20259;-50
2023/09/20 10:43:36;;;;;;;1.00;0.75;;;;;;;;;;4998395;28;20183;-46
2023/09/20 10:46:09;;;;;;;2.05;0.93;;;;;;;;;;4984488;28;20185;-49
2023/09/20 10:48:39;;;;;;;1.58;1.05;;;;;;;;;;5003858;28;20879;-47
2023/09/20 10:51:06;;;;;;;1.00;0.90;;;;;;;;;;4985314;28;20582;-49
2023/09/20 10:53:45;;;;;;;1.30;0.98;;;;;;;;;;4990848;28;20174;-47
2023/09/20 10:56:12;;;;;;;1.15;1.00;;;;;;;;;;4997423;28;20249;-49
2023/09/20 10:58:42;;;;;;;2.92;0.98;;;;;;;;;;5004136;28;20182;-47
2023/09/20 11:01:08;;;;;;;1.30;1.15;;;;;;;;;;5000459;28;20181;-47
2023/09/20 11:03:34;;;;;;;1.92;1.10;;;;;;;;;;4995762;28;20200;-49
2023/09/20 11:06:00;;;;;;;2.08;0.80;;;;;;;;;;4986353;28;20213;-47
2023/09/20 11:08:27;;;;;;;0.85;0.85;;;;;;;;;;5007510;28;20184;-47
2023/09/20 11:10:54;;;;;;;4.03;1.02;;;;;;;;;;4993964;28;20268;-47
2023/09/20 11:13:22;;;;;;;3.45;1.48;;;;;;;;;;5005103;28;20183;-45
2023/09/20 11:15:48;;;;;;;4.63;1.20;;;;;;;;;;4997439;28;20268;-46
2023/09/20 11:18:19;;;;;;;3.22;0.93;;;;;;;;;;5008146;28;20174;-49
2023/09/20 11:20:45;;;;;;;4.68;1.40;;;;;;;;;;5006432;28;20177;-47
2023/09/20 11:23:13;;;;;;;3.03;1.08;;;;;;;;;;5003098;28;20212;-47
2023/09/20 11:25:41;;;;;;;4.43;1.42;;;;;;;;;;4997166;28;20202;-47
2023/09/20 11:28:08;;;;;;;7.80;1.30;;;;;;;;;;4994657;28;20173;-47
2023/09/20 11:30:34;;;;;;;3.55;1.60;;;;;;;;;;5004263;28;20488;-47
2023/09/20 11:33:03;;;;;;;2.38;1.10;;;;;;;;;;5005730;28;20216;-47
2023/09/20 11:35:39;;;;;;;3.28;0.93;;;;;;;;;;5008356;28;20279;-47
2023/09/20 11:38:07;;;;;;;7.93;1.20;;;;;;;;;;5007636;28;20204;-47
2023/09/20 11:40:35;;;;;;;3.40;1.23;;;;;;;;;;5003763;28;20189;-47
2023/09/20 11:43:03;;;;;;;6.60;1.15;;;;;;;;;;5003070;28;20204;-47
2023/09/20 11:45:29;;;;;;;4.65;1.17;;;;;;;;;;5003372;28;20250;-47
2023/09/20 11:47:55;;;;;;;7.20;1.52;;;;;;;;;;5008431;28;20638;-47
2023/09/20 11:50:24;;;;;;;1.90;1.08;;;;;;;;;;4997887;28;20205;-47
2023/09/20 11:52:50;;;;;;;7.25;1.42;;;;;;;;;;5002168;28;20326;-47
2023/09/20 11:55:16;;;;;;;3.55;1.10;;;;;;;;;;4991158;28;20268;-47
2023/09/20 11:57:45;;;;;;;5.47;1.10;;;;;;;;;;5001820;28;20184;-47
2023/09/20 12:00:16;;;;;;;3.47;1.38;;;;;;;;;;4997213;28;20180;-46
2023/09/20 12:02:42;;;;;;;2.08;1.10;;;;;;;;;;4998799;28;20627;-46
2023/09/20 12:05:08;;;;;;;0.68;0.68;;;;;;;;;;5006805;28;20320;-47
2023/09/20 12:07:34;;;;;;;2.78;1.08;;;;;;;;;;5001851;28;20267;-47
2023/09/20 12:10:00;;;;;;;2.28;0.82;;;;;;;;;;4998820;28;20206;-47
2023/09/20 12:12:27;;;;;;;3.55;1.10;;;;;;;;;;5004711;28;20181;-47
2023/09/20 12:14:53;;;;;;;1.95;0.90;;;;;;;;;;5007871;28;20177;-47
2023/09/20 12:17:19;;;;;;;3.67;1.20;;;;;;;;;;5004559;28;20191;-47
2023/09/20 12:19:45;;;;;;;3.30;1.10;;;;;;;;;;5004306;28;20197;-46
2023/09/20 12:22:12;;;;;;;1.88;1.00;;;;;;;;;;4993686;28;20186;-47
2023/09/20 12:24:37;;;;;;;1.40;1.00;;;;;;;;;;5005914;28;20275;-47
2023/09/20 12:27:05;;;;;;;2.33;1.10;;;;;;;;;;5002967;28;20312;-47
2023/09/20 12:29:31;;;;;;;1.17;0.93;;;;;;;;;;5011518;28;20200;-47
2023/09/20 12:31:57;;;;;;;1.63;1.00;;;;;;;;;;5002644;28;20499;-47
2023/09/20 12:34:22;;;;;;;3.53;1.20;;;;;;;;;;5008598;28;20181;-47
2023/09/20 12:36:49;;;;;;;2.63;1.02;;;;;;;;;;5007363;28;20263;-47
2023/09/20 12:39:16;;;;;;;2.17;1.20;;;;;;;;;;5007250;28;20219;-47
2023/09/20 12:41:42;;;;;;;1.83;1.15;;;;;;;;;;5005433;28;20564;-47
2023/09/20 12:44:08;;;;;;;1.45;1.15;;;;;;;;;;4997229;28;20276;-47
2023/09/20 12:46:36;;;;;;;1.40;1.08;;;;;;;;;;5000026;28;20251;-47
2023/09/20 12:49:01;;;;;;;1.55;0.90;;;;;;;;;;5005236;28;20607;-47
2023/09/20 12:51:27;;;;;;;1.92;1.33;;;;;;;;;;4997963;28;20189;-47
2023/09/20 12:53:53;;;;;;;1.20;1.10;;;;;;;;;;5011387;28;20181;-47
2023/09/20 12:56:19;;;;;;;2.28;0.90;;;;;;;;;;5009239;28;20184;-47
2023/09/20 12:58:46;;;;;;;2.42;0.90;;;;;;;;;;5003194;28;20498;-47
2023/09/20 13:01:12;;;;;;;1.27;1.00;;;;;;;;;;4998270;28;20189;-47
2023/09/20 13:03:40;;;;;;;1.85;0.80;;;;;;;;;;4999251;28;20185;-47
2023/09/20 13:06:07;;;;;;;0.80;0.80;;;;;;;;;;4999698;28;20191;-47
2023/09/20 13:08:33;;;;;;;1.30;1.10;;;;;;;;;;5016121;28;20214;-46
2023/09/20 13:10:59;;;;;;;2.03;0.90;;;;;;;;;;5004329;28;20196;-47
2023/09/20 13:13:26;;;;;;;0.80;0.80;;;;;;;;;;5002745;28;20185;-47
2023/09/20 13:15:52;;;;;;;1.27;0.82;;;;;;;;;;4996225;28;20672;-47
2023/09/20 13:18:18;;;;;;;1.30;1.00;;;;;;;;;;5005566;28;20204;-47
2023/09/20 13:20:44;;;;;;;1.73;1.00;;;;;;;;;;5014890;28;20541;-48
2023/09/20 13:23:10;;;;;;;2.50;1.02;;;;;;;;;;5001162;28;20189;-47
2023/09/20 13:25:39;;;;;;;1.20;0.95;;;;;;;;;;4999260;28;20182;-47
2023/09/20 13:28:06;;;;;;;1.23;0.98;;;;;;;;;;5007644;28;20189;-47
2023/09/20 13:30:32;;;;;;;1.08;0.98;;;;;;;;;;5003404;28;20212;-47
2023/09/20 13:32:59;;;;;;;2.67;1.20;;;;;;;;;;5003208;28;20544;-47
2023/09/20 13:35:25;;;;;;;1.30;1.15;;;;;;;;;;5000738;28;20183;-47
2023/09/20 13:37:52;;;;;;;2.05;1.25;;;;;;;;;;4996057;28;20185;-47
2023/09/20 13:40:18;;;;;;;1.80;1.00;;;;;;;;;;4987340;28;20192;-47
2023/09/20 13:42:45;;;;;;;1.38;1.15;;;;;;;;;;4992927;28;20192;-47
2023/09/20 13:45:13;;;;;;;2.80;1.08;;;;;;;;;;4999609;28;20212;-47
2023/09/20 13:47:41;;;;;;;1.17;0.90;;;;;;;;;;4984554;28;20184;-47
2023/09/20 13:50:08;;;;;;;1.25;1.10;;;;;;;;;;4991749;28;20209;-47
2023/09/20 13:52:34;;;;;;;2.55;0.98;;;;;;;;;;4985645;28;20182;-47
2023/09/20 13:55:04;;;;;;;1.38;1.00;;;;;;;;;;4987611;28;20181;-47
2023/09/20 13:57:30;;;;;;;1.13;0.88;;;;;;;;;;4987854;28;20173;-47
2023/09/20 13:59:57;;;;;;;1.10;0.77;;;;;;;;;;4986817;28;20361;-47
2023/09/20 14:02:24;;;;;;;1.23;1.00;;;;;;;;;;4983876;28;20189;-47
2023/09/20 14:04:50;;;;;;;1.75;1.00;;;;;;;;;;4982856;28;20181;-47
2023/09/20 14:07:17;;;;;;;1.27;1.10;;;;;;;;;;4989331;28;20213;-48
2023/09/20 14:09:43;;;;;;;1.05;0.95;;;;;;;;;;4992016;28;20205;-47
2023/09/20 14:12:09;;;;;;;1.25;0.95;;;;;;;;;;4984976;28;20781;-47
2023/09/20 14:14:36;;;;;;;1.63;1.00;;;;;;;;;;4983637;28;20914;-47
2023/09/20 14:17:04;;;;;;;1.02;0.93;;;;;;;;;;4990857;28;20228;-47
2023/09/20 14:19:30;;;;;;;1.38;1.00;;;;;;;;;;4984196;28;20184;-47
2023/09/20 14:21:56;;;;;;;1.92;1.10;;;;;;;;;;4984951;28;20509;-47
2023/09/20 14:24:22;;;;;;;0.98;0.80;;;;;;;;;;4982376;28;20280;-47
2023/09/20 14:26:48;;;;;;;1.02;0.93;;;;;;;;;;4989362;28;20272;-47
2023/09/20 14:29:16;;;;;;;1.30;1.10;;;;;;;;;;4987779;28;20291;-47
2023/09/20 14:31:43;;;;;;;2.55;1.25;;;;;;;;;;4990770;28;20231;-47
2023/09/20 14:34:10;;;;;;;0.70;0.70;;;;;;;;;;4984921;28;20181;-47
2023/09/20 14:36:38;;;;;;;1.17;1.08;;;;;;;;;;5003632;28;20215;-47
2023/09/20 14:39:04;;;;;;;2.30;0.80;;;;;;;;;;5009396;28;20214;-47
2023/09/20 14:41:30;;;;;;;2.25;1.00;;;;;;;;;;4996808;28;20655;-47
2023/09/20 14:43:56;;;;;;;1.17;1.08;;;;;;;;;;4985655;28;20632;-47
2023/09/20 14:46:22;;;;;;;1.00;0.90;;;;;;;;;;4991214;28;20568;-47
2023/09/20 14:48:48;;;;;;;2.28;1.00;;;;;;;;;;4987180;28;20200;-47
2023/09/20 14:51:17;;;;;;;1.75;1.20;;;;;;;;;;5002045;28;20215;-47
2023/09/20 14:53:44;;;;;;;1.33;1.23;;;;;;;;;;4989581;28;20450;-47
2023/09/20 14:56:11;;;;;;;1.58;1.02;;;;;;;;;;5003849;28;20463;-47
2023/09/20 14:58:37;;;;;;;0.80;0.80;;;;;;;;;;5001527;28;20649;-47
2023/09/20 15:01:20;;;;;;;1.45;1.00;;;;;;;;;;4991950;28;20491;-47
2023/09/20 15:03:46;;;;;;;1.10;0.90;;;;;;;;;;4991673;28;20422;-47
2023/09/20 15:06:22;;;;;;;2.35;1.10;;;;;;;;;;4995049;28;21001;-47
2023/09/20 15:08:48;;;;;;;2.22;0.90;;;;;;;;;;4991627;28;20512;-47
2023/09/20 15:11:15;;;;;;;1.30;0.93;;;;;;;;;;4988457;28;20173;-47
2023/09/20 15:13:41;;;;;;;1.80;1.17;;;;;;;;;;4994851;28;20216;-47
2023/09/20 15:16:16;;;;;;;1.60;1.10;;;;;;;;;;4989930;28;20185;-47
2023/09/20 15:18:47;;;;;;;2.60;0.95;;;;;;;;;;4989650;28;20227;-47
2023/09/20 15:21:15;;;;;;;0.98;0.82;;;;;;;;;;4989401;28;20185;-47
2023/09/20 15:23:43;;;;;;;1.40;1.10;;;;;;;;;;4988759;28;20200;-47
2023/09/20 15:26:10;;;;;;;1.10;1.00;;;;;;;;;;4987379;28;20618;-47